createdAt,value
2019-01-26T00:01:41.121Z,19.27
2019-01-26T00:04:10.311Z,19.05
2019-01-26T00:06:39.589Z,18.55
2019-01-26T00:09:10.336Z,19.15
2019-01-26T00:11:39.544Z,18.20
2019-01-26T00:14:08.720Z,20.32
2019-01-26T00:16:37.874Z,16.80
2019-01-26T00:19:07.151Z,18.27
2019-01-26T00:21:36.337Z,19.27
2019-01-26T00:24:05.816Z,20.95
2019-01-26T00:26:36.450Z,19.32
2019-01-26T00:29:05.783Z,18.90
2019-01-26T00:31:34.904Z,20.97
2019-01-26T00:34:04.111Z,21.17
2019-01-26T00:36:33.300Z,21.42
2019-01-26T00:39:02.431Z,21.57
2019-01-26T00:41:31.620Z,18.82
2019-01-26T00:44:00.800Z,20.88
2019-01-26T00:46:29.984Z,19.05
2019-01-26T00:48:59.104Z,20.80
2019-01-26T00:51:28.221Z,21.33
2019-01-26T00:53:57.492Z,21.40
2019-01-26T00:56:26.604Z,20.27
2019-01-26T00:58:55.832Z,21.52
2019-01-26T01:01:25.384Z,19.55
2019-01-26T01:03:54.581Z,20.77
2019-01-26T01:06:26.000Z,18.27
2019-01-26T01:08:54.745Z,18.73
2019-01-26T01:11:23.931Z,20.00
2019-01-26T01:13:53.109Z,19.80
2019-01-26T01:16:22.321Z,18.73
2019-01-26T01:18:51.530Z,19.05
2019-01-26T01:21:20.777Z,18.05
2019-01-26T01:23:50.115Z,18.00
2019-01-26T01:26:19.389Z,18.23
2019-01-26T01:28:48.572Z,18.45
2019-01-26T01:31:17.774Z,19.52
2019-01-26T01:33:46.970Z,20.02
2019-01-26T01:36:16.179Z,18.00
2019-01-26T01:38:45.284Z,19.12
2019-01-26T01:41:14.532Z,19.27
2019-01-26T01:43:43.651Z,17.95
2019-01-26T01:46:12.765Z,18.35
2019-01-26T01:48:41.884Z,18.67
2019-01-26T01:51:11.112Z,18.67
2019-01-26T01:53:40.283Z,18.87
2019-01-26T01:56:10.226Z,17.30
2019-01-26T01:58:39.421Z,17.85
2019-01-26T02:01:08.581Z,18.00
2019-01-26T02:03:37.694Z,17.23
2019-01-26T02:06:06.867Z,17.32
2019-01-26T02:08:36.044Z,17.90
2019-01-26T02:11:05.214Z,17.15
2019-01-26T02:13:34.368Z,17.77
2019-01-26T02:16:04.717Z,17.70
2019-01-26T02:18:33.836Z,17.55
2019-01-26T02:21:04.705Z,15.05
2019-01-26T02:23:33.876Z,14.63
2019-01-26T02:26:03.129Z,18.10
2019-01-26T02:28:32.400Z,17.17
2019-01-26T02:31:01.703Z,16.65
2019-01-26T02:33:30.888Z,18.30
2019-01-26T02:35:59.993Z,17.70
2019-01-26T02:38:29.194Z,16.60
2019-01-26T02:40:58.486Z,16.65
2019-01-26T02:43:27.674Z,18.35
2019-01-26T02:45:56.776Z,16.87
2019-01-26T02:48:25.899Z,16.77
2019-01-26T02:50:55.084Z,17.30
2019-01-26T02:53:24.245Z,16.87
2019-01-26T02:55:53.411Z,16.32
2019-01-26T02:58:22.527Z,15.95
2019-01-26T03:00:51.739Z,17.12
2019-01-26T03:03:20.918Z,17.20
2019-01-26T03:05:50.532Z,17.23
2019-01-26T03:08:19.737Z,18.00
2019-01-26T03:10:48.916Z,16.93
2019-01-26T03:13:18.137Z,18.62
2019-01-26T03:15:47.331Z,17.35
2019-01-26T03:18:16.656Z,18.05
2019-01-26T03:20:45.959Z,16.97
2019-01-26T03:23:17.247Z,19.52
2019-01-26T03:25:46.380Z,19.27
2019-01-26T03:28:15.633Z,17.73
2019-01-26T03:30:44.874Z,19.65
2019-01-26T03:33:14.070Z,19.20
2019-01-26T03:35:43.291Z,18.27
2019-01-26T03:38:12.476Z,19.65
2019-01-26T03:40:41.640Z,22.67
2019-01-26T03:43:10.877Z,20.23
2019-01-26T03:45:40.154Z,20.80
2019-01-26T03:48:09.461Z,21.48
2019-01-26T03:50:38.644Z,20.37
2019-01-26T03:53:07.871Z,20.10
2019-01-26T03:55:37.143Z,22.17
2019-01-26T03:58:06.478Z,20.88
2019-01-26T04:00:35.672Z,19.65
2019-01-26T04:03:05.114Z,21.05
2019-01-26T04:05:34.313Z,19.90
2019-01-26T04:08:03.559Z,18.80
2019-01-26T04:10:32.762Z,21.23
2019-01-26T04:13:01.886Z,20.48
2019-01-26T04:15:31.088Z,20.43
2019-01-26T04:18:00.187Z,21.75
2019-01-26T04:20:29.489Z,21.02
2019-01-26T04:22:58.722Z,19.23
2019-01-26T04:25:27.928Z,21.20
2019-01-26T04:27:57.050Z,22.75
2019-01-26T04:30:26.316Z,23.98
2019-01-26T04:32:55.398Z,20.15
2019-01-26T04:35:24.674Z,23.42
2019-01-26T04:37:53.841Z,23.12
2019-01-26T04:40:22.998Z,36.38
2019-01-26T04:42:52.283Z,24.30
2019-01-26T04:45:23.312Z,25.20
2019-01-26T04:47:52.472Z,23.45
2019-01-26T04:50:21.800Z,22.42
2019-01-26T04:52:50.952Z,23.77
2019-01-26T04:55:20.701Z,25.57
2019-01-26T04:57:49.961Z,24.77
2019-01-26T05:00:24.544Z,22.32
2019-01-26T05:02:53.792Z,22.75
2019-01-26T05:05:22.982Z,22.58
2019-01-26T05:07:52.221Z,22.27
2019-01-26T05:10:21.538Z,22.82
2019-01-26T05:12:50.809Z,22.95
2019-01-26T05:15:20.188Z,24.27
2019-01-26T05:17:49.443Z,22.25
2019-01-26T05:20:25.632Z,20.92
2019-01-26T05:22:54.801Z,21.93
2019-01-26T05:25:24.009Z,23.77
2019-01-26T05:27:53.333Z,22.13
2019-01-26T05:30:24.767Z,22.93
2019-01-26T05:32:53.865Z,20.20
2019-01-26T05:35:23.132Z,18.00
2019-01-26T05:37:52.303Z,16.73
2019-01-26T05:40:21.432Z,10.43
2019-01-26T05:42:50.601Z,11.30
2019-01-26T05:45:21.262Z,10.10
2019-01-26T05:47:50.623Z,10.58
2019-01-26T05:50:21.984Z,10.55
2019-01-26T05:52:51.332Z,9.38
2019-01-26T05:55:20.464Z,11.05
2019-01-26T05:57:49.660Z,9.80
2019-01-26T06:00:25.408Z,10.85
2019-01-26T06:02:54.605Z,8.98
2019-01-26T06:05:23.946Z,10.00
2019-01-26T06:07:53.180Z,8.98
2019-01-26T06:10:22.369Z,9.35
2019-01-26T06:12:51.612Z,9.23
2019-01-26T06:15:20.876Z,9.48
2019-01-26T06:17:54.992Z,8.18
2019-01-26T06:20:20.995Z,8.83
2019-01-26T06:22:50.175Z,9.10
2019-01-26T06:25:19.812Z,7.97
2019-01-26T06:27:49.277Z,8.15
2019-01-26T06:30:20.689Z,7.95
2019-01-26T06:32:49.870Z,7.95
2019-01-26T06:35:19.113Z,8.25
2019-01-26T06:37:48.357Z,8.15
2019-01-26T06:40:18.344Z,8.23
2019-01-26T06:42:47.572Z,7.75
2019-01-26T06:45:18.182Z,7.08
2019-01-26T06:47:47.518Z,8.03
2019-01-26T06:50:21.475Z,6.55
2019-01-26T06:52:50.644Z,6.90
2019-01-26T06:55:19.971Z,6.80
2019-01-26T06:57:49.201Z,6.85
2019-01-26T07:00:20.730Z,6.42
2019-01-26T07:02:49.959Z,7.35
2019-01-26T07:05:56.832Z,7.25
2019-01-26T07:08:25.980Z,6.17
2019-01-26T07:10:55.093Z,7.15
2019-01-26T07:13:24.311Z,6.35
2019-01-26T07:15:55.221Z,6.75
2019-01-26T07:18:24.309Z,7.22
2019-01-26T07:20:53.568Z,7.22
2019-01-26T07:23:22.740Z,5.45
2019-01-26T07:25:52.425Z,6.33
2019-01-26T07:28:21.574Z,6.75
2019-01-26T07:30:50.777Z,5.55
2019-01-26T07:33:19.953Z,6.53
2019-01-26T07:35:49.115Z,5.45
2019-01-26T07:38:18.197Z,5.78
2019-01-26T07:40:47.283Z,5.60
2019-01-26T07:43:16.428Z,5.65
2019-01-26T07:45:45.707Z,5.83
2019-01-26T07:48:16.836Z,5.97
2019-01-26T07:50:45.747Z,5.42
2019-01-26T07:53:14.923Z,6.12
2019-01-26T07:55:44.035Z,5.70
2019-01-26T07:58:13.132Z,4.45
2019-01-26T08:00:42.300Z,4.80
2019-01-26T08:03:11.467Z,4.80
2019-01-26T08:05:40.702Z,5.58
2019-01-26T08:08:09.927Z,5.45
2019-01-26T08:10:39.071Z,5.08
2019-01-26T08:13:08.313Z,4.67
2019-01-26T08:15:38.441Z,4.22
2019-01-26T08:18:09.035Z,3.95
2019-01-26T08:20:38.352Z,4.92
2019-01-26T08:23:08.747Z,4.80
2019-01-26T08:25:37.863Z,4.95
2019-01-26T08:28:07.029Z,4.58
2019-01-26T08:30:36.229Z,4.08
2019-01-26T08:33:05.430Z,4.47
2019-01-26T08:35:34.787Z,4.20
2019-01-26T08:38:04.158Z,4.12
2019-01-26T08:40:33.244Z,4.97
2019-01-26T08:43:02.399Z,4.22
2019-01-26T08:45:31.501Z,4.37
2019-01-26T08:48:00.673Z,4.62
2019-01-26T08:50:29.912Z,3.62
2019-01-26T08:52:58.989Z,3.37
2019-01-26T08:55:28.290Z,5.22
2019-01-26T08:57:57.589Z,5.03
2019-01-26T09:00:28.032Z,4.12
2019-01-26T09:03:16.458Z,4.50
2019-01-26T09:06:16.997Z,3.52
2019-01-26T09:08:46.181Z,3.33
2019-01-26T09:11:15.445Z,3.85
2019-01-26T09:13:44.686Z,3.90
2019-01-26T09:16:13.894Z,3.55
2019-01-26T09:18:43.227Z,3.90
2019-01-26T09:21:12.408Z,3.80
2019-01-26T09:23:41.665Z,3.83
2019-01-26T09:26:10.850Z,3.52
2019-01-26T09:28:40.010Z,3.60
2019-01-26T09:31:09.125Z,4.05
2019-01-26T09:33:38.329Z,3.40
2019-01-26T09:36:07.514Z,3.90
2019-01-26T09:38:36.696Z,4.10
2019-01-26T09:41:06.037Z,3.30
2019-01-26T09:43:35.120Z,3.65
2019-01-26T09:46:04.759Z,3.25
2019-01-26T09:48:33.979Z,3.40
2019-01-26T09:51:03.420Z,3.50
2019-01-26T09:53:32.632Z,3.22
2019-01-26T09:56:01.789Z,3.67
2019-01-26T09:58:31.123Z,4.33
2019-01-26T10:01:00.226Z,3.47
2019-01-26T10:03:29.347Z,3.60
2019-01-26T10:05:58.518Z,3.40
2019-01-26T10:08:27.681Z,3.95
2019-01-26T10:10:56.793Z,3.75
2019-01-26T10:13:25.961Z,3.98
2019-01-26T10:15:55.168Z,4.42
2019-01-26T10:18:24.393Z,4.20
2019-01-26T10:20:53.555Z,6.20
2019-01-26T10:23:22.942Z,4.40
2019-01-26T10:25:52.288Z,4.60
2019-01-26T10:28:21.463Z,4.65
2019-01-26T10:30:57.183Z,5.83
2019-01-26T10:33:26.370Z,5.37
2019-01-26T10:36:14.639Z,5.03
2019-01-26T10:38:48.965Z,4.90
2019-01-26T10:41:35.932Z,4.95
2019-01-26T10:44:05.488Z,4.15
2019-01-26T10:46:34.639Z,5.00
2019-01-26T10:49:03.957Z,4.47
2019-01-26T10:51:33.077Z,4.95
2019-01-26T10:54:02.165Z,5.72
2019-01-26T10:56:31.344Z,5.37
2019-01-26T10:59:00.504Z,5.42
2019-01-26T11:01:29.895Z,5.55
2019-01-26T11:03:59.304Z,4.83
2019-01-26T11:06:28.488Z,4.35
2019-01-26T11:08:57.589Z,4.78
2019-01-26T11:11:26.826Z,4.35
2019-01-26T11:13:55.925Z,4.30
2019-01-26T11:16:24.996Z,3.67
2019-01-26T11:18:54.181Z,5.08
2019-01-26T11:21:23.404Z,4.35
2019-01-26T11:23:52.533Z,4.72
2019-01-26T11:26:21.636Z,4.65
2019-01-26T11:28:50.785Z,4.60
2019-01-26T11:31:20.084Z,4.72
2019-01-26T11:33:49.247Z,3.80
2019-01-26T11:36:18.510Z,4.72
2019-01-26T11:38:47.741Z,3.60
2019-01-26T11:41:16.975Z,3.90
2019-01-26T11:43:47.413Z,4.15
2019-01-26T11:46:25.353Z,4.12
2019-01-26T11:48:56.044Z,4.35
2019-01-26T11:51:56.646Z,4.85
2019-01-26T11:54:28.783Z,3.55
2019-01-26T11:57:05.681Z,4.15
2019-01-26T11:59:34.767Z,3.70
2019-01-26T12:02:11.355Z,4.67
2019-01-26T12:04:46.971Z,4.10
2019-01-26T12:07:18.895Z,4.20
2019-01-26T12:09:48.088Z,4.85
2019-01-26T12:12:17.245Z,4.20
2019-01-26T12:14:47.485Z,4.00
2019-01-26T12:17:16.777Z,4.42
2019-01-26T12:19:45.960Z,3.80
2019-01-26T12:22:15.074Z,4.10
2019-01-26T12:24:44.491Z,3.83
2019-01-26T12:27:26.920Z,4.47
2019-01-26T12:29:56.216Z,4.12
2019-01-26T12:32:25.337Z,3.98
2019-01-26T12:34:54.507Z,5.35
2019-01-26T12:37:23.627Z,4.40
2019-01-26T12:39:52.874Z,4.65
2019-01-26T12:42:22.105Z,4.10
2019-01-26T12:44:51.385Z,3.77
2019-01-26T12:47:20.515Z,3.75
2019-01-26T12:49:49.689Z,4.00
2019-01-26T12:52:18.867Z,4.72
2019-01-26T12:54:47.969Z,4.15
2019-01-26T12:57:17.124Z,4.62
2019-01-26T12:59:46.257Z,4.90
2019-01-26T13:02:15.487Z,4.87
2019-01-26T13:04:46.932Z,4.90
2019-01-26T13:07:16.053Z,4.78
2019-01-26T13:09:45.659Z,4.10
2019-01-26T13:12:15.071Z,4.47
2019-01-26T13:14:44.254Z,5.08
2019-01-26T13:17:14.800Z,5.22
2019-01-26T13:19:43.884Z,4.20
2019-01-26T13:22:13.059Z,4.10
2019-01-26T13:24:42.187Z,5.03
2019-01-26T13:27:13.473Z,5.00
2019-01-26T13:29:42.702Z,5.00
2019-01-26T13:32:12.254Z,5.40
2019-01-26T13:34:41.437Z,5.75
2019-01-26T13:37:10.782Z,5.70
2019-01-26T13:39:39.956Z,5.30
2019-01-26T13:42:09.079Z,5.30
2019-01-26T13:44:38.423Z,5.25
2019-01-26T13:47:07.628Z,5.85
2019-01-26T13:49:36.757Z,6.10
2019-01-26T13:52:07.520Z,4.78
2019-01-26T13:54:37.967Z,5.33
2019-01-26T13:57:07.189Z,5.20
2019-01-26T13:59:36.493Z,5.40
2019-01-26T14:02:05.811Z,5.40
2019-01-26T14:04:35.066Z,5.45
2019-01-26T14:07:04.289Z,4.50
2019-01-26T14:09:33.389Z,4.67
2019-01-26T14:12:02.549Z,6.70
2019-01-26T14:14:31.841Z,5.20
2019-01-26T14:17:01.103Z,11.10
2019-01-26T14:19:30.277Z,5.80
2019-01-26T14:21:59.474Z,4.72
2019-01-26T14:24:28.575Z,4.58
2019-01-26T14:26:57.823Z,4.08
2019-01-26T14:29:27.098Z,4.20
2019-01-26T14:31:56.270Z,4.80
2019-01-26T14:34:25.438Z,3.75
2019-01-26T14:36:54.617Z,4.25
2019-01-26T14:39:23.755Z,4.45
2019-01-26T14:41:52.899Z,4.75
2019-01-26T14:44:22.064Z,4.90
2019-01-26T14:46:51.185Z,3.52
2019-01-26T14:49:20.286Z,4.03
2019-01-26T14:51:49.489Z,4.35
2019-01-26T14:54:18.670Z,4.87
2019-01-26T14:56:47.864Z,4.17
2019-01-26T14:59:16.999Z,4.85
2019-01-26T15:01:46.248Z,5.83
2019-01-26T15:04:15.464Z,3.90
2019-01-26T15:06:44.560Z,4.25
2019-01-26T15:09:13.731Z,4.08
2019-01-26T15:11:42.960Z,4.47
2019-01-26T15:14:12.157Z,4.25
2019-01-26T15:16:41.250Z,4.08
2019-01-26T15:19:10.357Z,3.80
2019-01-26T15:21:39.508Z,4.45
2019-01-26T15:24:08.678Z,3.85
2019-01-26T15:26:37.800Z,3.52
2019-01-26T15:29:06.939Z,4.05
2019-01-26T15:31:36.053Z,4.53
2019-01-26T15:34:05.242Z,4.00
2019-01-26T15:36:34.363Z,4.70
2019-01-26T15:39:05.272Z,4.20
2019-01-26T15:41:34.395Z,3.90
2019-01-26T15:44:03.561Z,4.10
2019-01-26T15:46:32.780Z,4.35
2019-01-26T15:49:01.882Z,4.53
2019-01-26T15:51:31.049Z,4.92
2019-01-26T15:54:00.220Z,3.40
2019-01-26T15:56:29.425Z,3.72
2019-01-26T15:58:58.556Z,4.30
2019-01-26T16:01:27.675Z,3.72
2019-01-26T16:03:56.830Z,4.25
2019-01-26T16:06:26.132Z,3.92
2019-01-26T16:08:55.345Z,3.80
2019-01-26T16:11:24.751Z,3.87
2019-01-26T16:13:53.933Z,4.15
2019-01-26T16:16:23.013Z,3.98
2019-01-26T16:18:52.226Z,4.15
2019-01-26T16:21:21.386Z,3.65
2019-01-26T16:23:50.460Z,4.33
2019-01-26T16:26:19.667Z,4.10
2019-01-26T16:28:48.758Z,5.60
2019-01-26T16:31:17.932Z,4.12
2019-01-26T16:33:48.216Z,4.80
2019-01-26T16:36:17.408Z,4.72
2019-01-26T16:38:46.507Z,4.05
2019-01-26T16:41:15.637Z,3.40
2019-01-26T16:43:44.811Z,4.05
2019-01-26T16:46:14.078Z,4.10
2019-01-26T16:48:44.645Z,4.30
2019-01-26T16:51:13.886Z,4.12
2019-01-26T16:53:44.379Z,4.10
2019-01-26T16:56:13.613Z,5.30
2019-01-26T16:58:42.730Z,4.03
2019-01-26T17:01:11.901Z,5.85
2019-01-26T17:03:42.183Z,4.83
2019-01-26T17:06:11.310Z,4.10
2019-01-26T17:08:40.536Z,4.15
2019-01-26T17:11:09.684Z,3.52
2019-01-26T17:13:39.118Z,4.80
2019-01-26T17:16:08.320Z,4.20
2019-01-26T17:18:37.565Z,3.55
2019-01-26T17:21:06.824Z,3.65
2019-01-26T17:23:36.022Z,3.55
2019-01-26T17:26:05.387Z,3.77
2019-01-26T17:28:34.566Z,4.10
2019-01-26T17:31:03.752Z,3.87
2019-01-26T17:33:32.948Z,4.30
2019-01-26T17:36:02.132Z,3.85
2019-01-26T17:38:31.247Z,4.60
2019-01-26T17:41:00.500Z,4.40
2019-01-26T17:43:30.848Z,4.03
2019-01-26T17:46:00.055Z,4.53
2019-01-26T17:48:29.171Z,4.15
2019-01-26T17:50:58.366Z,4.03
2019-01-26T17:53:30.635Z,4.45
2019-01-26T17:55:59.843Z,4.87
2019-01-26T17:58:29.031Z,4.65
2019-01-26T18:00:59.360Z,3.90
2019-01-26T18:03:28.913Z,4.03
2019-01-26T18:05:58.096Z,4.60
2019-01-26T18:08:27.179Z,4.72
2019-01-26T18:10:56.444Z,4.22
2019-01-26T18:13:25.563Z,4.08
2019-01-26T18:15:54.699Z,3.95
2019-01-26T18:18:23.981Z,4.03
2019-01-26T18:20:53.365Z,4.05
2019-01-26T18:23:33.721Z,4.92
2019-01-26T18:26:03.178Z,4.25
2019-01-26T18:28:33.512Z,3.58
2019-01-26T18:31:04.059Z,4.10
2019-01-26T18:33:33.234Z,4.75
2019-01-26T18:36:02.629Z,4.85
2019-01-26T18:38:31.757Z,4.15
2019-01-26T18:41:00.902Z,3.75
2019-01-26T18:43:30.064Z,4.10
2019-01-26T18:45:59.238Z,4.20
2019-01-26T18:48:28.491Z,4.75
2019-01-26T18:50:57.737Z,4.10
2019-01-26T18:53:26.992Z,3.95
2019-01-26T18:55:56.102Z,3.80
2019-01-26T18:58:25.313Z,4.83
2019-01-26T19:00:54.473Z,4.25
2019-01-26T19:03:34.200Z,4.40
2019-01-26T19:06:03.580Z,4.80
2019-01-26T19:08:32.724Z,4.10
2019-01-26T19:11:01.997Z,4.87
2019-01-26T19:13:31.311Z,4.08
2019-01-26T19:16:00.529Z,4.50
2019-01-26T19:18:29.672Z,4.92
2019-01-26T19:21:03.025Z,3.85
2019-01-26T19:23:29.827Z,3.67
2019-01-26T19:25:59.067Z,4.00
2019-01-26T19:28:28.243Z,4.72
2019-01-26T19:30:57.570Z,4.90
2019-01-26T19:33:26.819Z,4.40
2019-01-26T19:35:56.021Z,4.30
2019-01-26T19:38:25.291Z,5.30
2019-01-26T19:40:54.478Z,5.00
2019-01-26T19:43:23.649Z,4.62
2019-01-26T19:45:57.750Z,4.42
2019-01-26T19:48:27.072Z,4.33
2019-01-26T19:50:56.175Z,4.90
2019-01-26T19:53:25.462Z,5.10
2019-01-26T19:55:54.700Z,5.50
2019-01-26T19:58:23.864Z,5.40
2019-01-26T20:00:52.970Z,5.42
2019-01-26T20:03:22.237Z,5.70
2019-01-26T20:05:51.401Z,6.12
2019-01-26T20:08:20.712Z,5.90
2019-01-26T20:10:49.877Z,5.12
2019-01-26T20:13:18.979Z,5.90
2019-01-26T20:15:48.179Z,6.33
2019-01-26T20:18:17.495Z,5.70
2019-01-26T20:20:51.973Z,5.90
2019-01-26T20:23:21.179Z,5.70
2019-01-26T20:25:50.423Z,6.25
2019-01-26T20:28:19.564Z,6.80
2019-01-26T20:30:49.774Z,9.75
2019-01-26T20:33:18.964Z,8.30
2019-01-26T20:35:48.494Z,5.85
2019-01-26T20:38:20.027Z,6.08
2019-01-26T20:40:49.337Z,6.17
2019-01-26T20:43:18.500Z,5.47
2019-01-26T20:45:48.029Z,5.67
2019-01-26T20:48:18.790Z,5.62
2019-01-26T20:50:48.062Z,5.67
2019-01-26T20:53:17.377Z,5.72
2019-01-26T20:55:46.824Z,6.65
2019-01-26T20:58:15.957Z,6.70
2019-01-26T21:00:45.221Z,5.47
2019-01-26T21:03:14.332Z,6.33
2019-01-26T21:05:43.514Z,7.30
2019-01-26T21:08:13.045Z,6.70
2019-01-26T21:10:42.183Z,6.12
2019-01-26T21:13:16.298Z,7.25
2019-01-26T21:15:42.217Z,7.33
2019-01-26T21:18:11.330Z,7.70
2019-01-26T21:20:40.521Z,6.47
2019-01-26T21:23:09.692Z,6.47
2019-01-26T21:25:38.894Z,7.75
2019-01-26T21:28:08.056Z,7.50
2019-01-26T21:30:37.236Z,7.03
2019-01-26T21:33:06.328Z,7.25
2019-01-26T21:35:35.584Z,6.67
2019-01-26T21:38:04.850Z,6.90
2019-01-26T21:40:34.046Z,6.00
2019-01-26T21:43:03.211Z,6.25
2019-01-26T21:45:32.551Z,6.53
2019-01-26T21:48:01.734Z,10.30
2019-01-26T21:50:31.428Z,9.38
2019-01-26T21:53:00.664Z,6.90
2019-01-26T21:55:29.974Z,5.30
2019-01-26T21:57:59.091Z,5.95
2019-01-26T22:00:33.421Z,5.35
2019-01-26T22:03:03.030Z,5.85
2019-01-26T22:05:32.280Z,4.80
2019-01-26T22:08:01.460Z,5.72
2019-01-26T22:10:30.712Z,4.97
2019-01-26T22:12:59.895Z,4.87
2019-01-26T22:15:29.201Z,4.55
2019-01-26T22:17:58.441Z,5.47
2019-01-26T22:20:28.573Z,3.90
2019-01-26T22:22:57.916Z,4.10
2019-01-26T22:25:27.148Z,4.22
2019-01-26T22:27:57.252Z,4.53
2019-01-26T22:30:31.245Z,4.83
2019-01-26T22:33:00.861Z,3.60
2019-01-26T22:35:30.230Z,4.70
2019-01-26T22:37:59.478Z,4.28
2019-01-26T22:40:30.855Z,3.30
2019-01-26T22:43:00.214Z,3.85
2019-01-26T22:45:29.657Z,3.47
2019-01-26T22:47:58.921Z,3.52
2019-01-26T22:50:28.216Z,6.65
2019-01-26T22:52:57.456Z,3.80
2019-01-26T22:55:26.949Z,3.62
2019-01-26T22:57:56.623Z,3.40
2019-01-26T23:00:56.644Z,3.60
2019-01-26T23:03:46.669Z,3.52
2019-01-26T23:06:39.948Z,3.35
2019-01-26T23:09:14.560Z,3.47
2019-01-26T23:12:24.715Z,3.92
2019-01-26T23:15:27.703Z,3.85
2019-01-26T23:18:22.849Z,3.30
2019-01-26T23:21:00.614Z,3.80
2019-01-26T23:24:22.144Z,3.05
2019-01-26T23:27:09.452Z,3.10
2019-01-26T23:30:04.752Z,3.37
2019-01-26T23:32:33.916Z,3.00
2019-01-26T23:35:03.178Z,3.55
2019-01-26T23:37:32.366Z,3.60
2019-01-26T23:40:01.534Z,3.25
2019-01-26T23:42:30.740Z,3.50
2019-01-26T23:44:59.831Z,3.00
2019-01-26T23:47:28.937Z,2.98
2019-01-26T23:49:58.032Z,11.83
2019-01-26T23:52:27.220Z,3.00
2019-01-26T23:54:56.384Z,3.75
2019-01-26T23:57:25.533Z,3.00
2019-01-26T23:59:54.650Z,3.60
